sensor_id;sensor_type;location;lat;lon;timestamp;P1;durP1;ratioP1;P2;durP2;ratioP2
61911;SDS011;49973;52.084;5.412;2024-01-11T00:00:50;4.20;;;2.37;;
61911;SDS011;49973;52.084;5.412;2024-01-11T00:03:19;3.30;;;2.17;;
61911;SDS011;49973;52.084;5.412;2024-01-11T00:05:49;2.33;;;2.07;;
61911;SDS011;49973;52.084;5.412;2024-01-11T00:08:18;4.47;;;2.23;;
61911;SDS011;49973;52.084;5.412;2024-01-11T00:10:46;2.17;;;1.97;;
61911;SDS011;49973;52.084;5.412;2024-01-11T00:13:15;2.90;;;1.93;;
61911;SDS011;49973;52.084;5.412;2024-01-11T00:15:44;2.73;;;1.93;;
61911;SDS011;49973;52.084;5.412;2024-01-11T00:18:13;4.37;;;2.73;;
61911;SDS011;49973;52.084;5.412;2024-01-11T00:20:41;7.90;;;2.27;;
61911;SDS011;49973;52.084;5.412;2024-01-11T00:23:11;4.17;;;2.13;;
61911;SDS011;49973;52.084;5.412;2024-01-11T00:25:40;3.17;;;1.97;;
61911;SDS011;49973;52.084;5.412;2024-01-11T00:28:09;5.33;;;2.13;;
61911;SDS011;49973;52.084;5.412;2024-01-11T00:30:37;3.53;;;2.53;;
61911;SDS011;49973;52.084;5.412;2024-01-11T00:33:06;3.87;;;2.67;;
61911;SDS011;49973;52.084;5.412;2024-01-11T00:35:36;10.23;;;2.67;;
61911;SDS011;49973;52.084;5.412;2024-01-11T00:38:05;4.97;;;2.13;;
61911;SDS011;49973;52.084;5.412;2024-01-11T00:40:35;5.43;;;2.67;;
61911;SDS011;49973;52.084;5.412;2024-01-11T00:43:04;2.10;;;1.60;;
61911;SDS011;49973;52.084;5.412;2024-01-11T00:45:32;4.77;;;2.37;;
61911;SDS011;49973;52.084;5.412;2024-01-11T00:48:02;3.63;;;2.43;;
61911;SDS011;49973;52.084;5.412;2024-01-11T00:50:32;3.83;;;2.57;;
61911;SDS011;49973;52.084;5.412;2024-01-11T00:53:00;2.77;;;1.73;;
61911;SDS011;49973;52.084;5.412;2024-01-11T00:55:30;2.63;;;2.03;;
61911;SDS011;49973;52.084;5.412;2024-01-11T00:57:59;2.17;;;1.43;;
61911;SDS011;49973;52.084;5.412;2024-01-11T01:00:28;4.53;;;2.40;;
61911;SDS011;49973;52.084;5.412;2024-01-11T01:02:57;2.43;;;1.77;;
61911;SDS011;49973;52.084;5.412;2024-01-11T01:05:25;4.13;;;3.13;;
61911;SDS011;49973;52.084;5.412;2024-01-11T01:07:54;4.60;;;2.33;;
61911;SDS011;49973;52.084;5.412;2024-01-11T01:10:23;5.83;;;1.67;;
61911;SDS011;49973;52.084;5.412;2024-01-11T01:12:51;4.83;;;2.03;;
61911;SDS011;49973;52.084;5.412;2024-01-11T01:15:21;3.03;;;2.50;;
61911;SDS011;49973;52.084;5.412;2024-01-11T01:17:50;5.57;;;2.80;;
61911;SDS011;49973;52.084;5.412;2024-01-11T01:20:20;20.13;;;2.00;;
61911;SDS011;49973;52.084;5.412;2024-01-11T01:22:49;1.73;;;1.53;;
61911;SDS011;49973;52.084;5.412;2024-01-11T01:25:17;4.50;;;2.77;;
61911;SDS011;49973;52.084;5.412;2024-01-11T01:27:46;2.43;;;2.10;;
61911;SDS011;49973;52.084;5.412;2024-01-11T01:30:15;6.40;;;2.40;;
61911;SDS011;49973;52.084;5.412;2024-01-11T01:32:45;4.40;;;2.47;;
61911;SDS011;49973;52.084;5.412;2024-01-11T01:35:14;1.80;;;1.40;;
61911;SDS011;49973;52.084;5.412;2024-01-11T01:37:43;2.87;;;1.87;;
61911;SDS011;49973;52.084;5.412;2024-01-11T01:40:12;2.13;;;1.57;;
61911;SDS011;49973;52.084;5.412;2024-01-11T01:42:41;5.10;;;2.67;;
61911;SDS011;49973;52.084;5.412;2024-01-11T01:45:10;6.47;;;2.53;;
61911;SDS011;49973;52.084;5.412;2024-01-11T01:47:40;1.63;;;1.33;;
61911;SDS011;49973;52.084;5.412;2024-01-11T01:50:11;3.83;;;2.03;;
61911;SDS011;49973;52.084;5.412;2024-01-11T01:52:41;4.07;;;1.83;;
61911;SDS011;49973;52.084;5.412;2024-01-11T01:55:11;4.23;;;2.97;;
61911;SDS011;49973;52.084;5.412;2024-01-11T01:57:42;5.20;;;2.73;;
61911;SDS011;49973;52.084;5.412;2024-01-11T02:00:13;8.10;;;2.20;;
61911;SDS011;49973;52.084;5.412;2024-01-11T02:02:42;2.00;;;1.57;;
61911;SDS011;49973;52.084;5.412;2024-01-11T02:05:14;5.07;;;2.53;;
61911;SDS011;49973;52.084;5.412;2024-01-11T02:07:44;6.37;;;2.13;;
61911;SDS011;49973;52.084;5.412;2024-01-11T02:10:13;4.60;;;2.57;;
61911;SDS011;49973;52.084;5.412;2024-01-11T02:12:42;2.27;;;1.77;;
61911;SDS011;49973;52.084;5.412;2024-01-11T02:15:11;3.83;;;2.23;;
61911;SDS011;49973;52.084;5.412;2024-01-11T02:17:39;3.03;;;1.70;;
61911;SDS011;49973;52.084;5.412;2024-01-11T02:20:09;6.43;;;3.10;;
61911;SDS011;49973;52.084;5.412;2024-01-11T02:22:40;3.47;;;2.77;;
61911;SDS011;49973;52.084;5.412;2024-01-11T02:25:16;2.73;;;2.27;;
61911;SDS011;49973;52.084;5.412;2024-01-11T02:27:45;3.27;;;2.13;;
61911;SDS011;49973;52.084;5.412;2024-01-11T02:30:15;2.43;;;2.23;;
61911;SDS011;49973;52.084;5.412;2024-01-11T02:32:45;5.50;;;2.23;;
61911;SDS011;49973;52.084;5.412;2024-01-11T02:35:16;4.87;;;2.37;;
61911;SDS011;49973;52.084;5.412;2024-01-11T02:37:45;2.30;;;2.10;;
61911;SDS011;49973;52.084;5.412;2024-01-11T02:40:16;5.63;;;2.93;;
61911;SDS011;49973;52.084;5.412;2024-01-11T02:42:47;2.90;;;2.00;;
61911;SDS011;49973;52.084;5.412;2024-01-11T02:45:16;3.67;;;2.60;;
61911;SDS011;49973;52.084;5.412;2024-01-11T02:47:46;2.37;;;1.93;;
61911;SDS011;49973;52.084;5.412;2024-01-11T02:50:14;2.97;;;2.63;;
61911;SDS011;49973;52.084;5.412;2024-01-11T02:52:43;4.60;;;1.60;;
61911;SDS011;49973;52.084;5.412;2024-01-11T02:55:12;3.20;;;1.83;;
61911;SDS011;49973;52.084;5.412;2024-01-11T02:57:42;3.47;;;2.27;;
61911;SDS011;49973;52.084;5.412;2024-01-11T03:00:11;2.07;;;1.30;;
61911;SDS011;49973;52.084;5.412;2024-01-11T03:02:40;2.97;;;2.67;;
61911;SDS011;49973;52.084;5.412;2024-01-11T03:05:09;8.10;;;3.20;;
61911;SDS011;49973;52.084;5.412;2024-01-11T03:07:38;2.93;;;2.57;;
61911;SDS011;49973;52.084;5.412;2024-01-11T03:10:07;6.03;;;2.97;;
61911;SDS011;49973;52.084;5.412;2024-01-11T03:12:36;5.03;;;2.43;;
61911;SDS011;49973;52.084;5.412;2024-01-11T03:15:06;4.13;;;1.67;;
61911;SDS011;49973;52.084;5.412;2024-01-11T03:17:35;5.60;;;3.33;;
61911;SDS011;49973;52.084;5.412;2024-01-11T03:20:04;4.40;;;2.30;;
61911;SDS011;49973;52.084;5.412;2024-01-11T03:22:34;3.73;;;2.33;;
61911;SDS011;49973;52.084;5.412;2024-01-11T03:25:03;5.93;;;3.30;;
61911;SDS011;49973;52.084;5.412;2024-01-11T03:27:32;3.10;;;2.57;;
61911;SDS011;49973;52.084;5.412;2024-01-11T03:30:00;6.77;;;2.60;;
61911;SDS011;49973;52.084;5.412;2024-01-11T03:32:31;4.10;;;2.63;;
61911;SDS011;49973;52.084;5.412;2024-01-11T03:35:00;8.17;;;3.17;;
61911;SDS011;49973;52.084;5.412;2024-01-11T03:37:28;6.50;;;3.00;;
61911;SDS011;49973;52.084;5.412;2024-01-11T03:39:57;2.93;;;2.20;;
61911;SDS011;49973;52.084;5.412;2024-01-11T03:42:26;5.97;;;3.40;;
61911;SDS011;49973;52.084;5.412;2024-01-11T03:44:54;3.30;;;2.53;;
61911;SDS011;49973;52.084;5.412;2024-01-11T03:47:23;5.70;;;3.23;;
61911;SDS011;49973;52.084;5.412;2024-01-11T03:49:53;4.27;;;3.03;;
61911;SDS011;49973;52.084;5.412;2024-01-11T03:52:22;7.27;;;3.73;;
61911;SDS011;49973;52.084;5.412;2024-01-11T03:54:50;6.20;;;2.87;;
61911;SDS011;49973;52.084;5.412;2024-01-11T03:57:19;4.57;;;3.43;;
61911;SDS011;49973;52.084;5.412;2024-01-11T03:59:48;4.37;;;2.80;;
61911;SDS011;49973;52.084;5.412;2024-01-11T04:02:16;4.57;;;3.30;;
61911;SDS011;49973;52.084;5.412;2024-01-11T04:04:45;8.20;;;4.00;;
61911;SDS011;49973;52.084;5.412;2024-01-11T04:07:15;5.27;;;3.50;;
61911;SDS011;49973;52.084;5.412;2024-01-11T04:09:44;8.43;;;4.57;;
61911;SDS011;49973;52.084;5.412;2024-01-11T04:12:12;6.63;;;3.40;;
61911;SDS011;49973;52.084;5.412;2024-01-11T04:14:41;5.23;;;3.03;;
61911;SDS011;49973;52.084;5.412;2024-01-11T04:17:10;7.77;;;3.23;;
61911;SDS011;49973;52.084;5.412;2024-01-11T04:19:39;7.13;;;3.40;;
61911;SDS011;49973;52.084;5.412;2024-01-11T04:22:07;5.13;;;3.53;;
61911;SDS011;49973;52.084;5.412;2024-01-11T04:24:37;4.40;;;3.33;;
61911;SDS011;49973;52.084;5.412;2024-01-11T04:27:06;7.53;;;4.77;;
61911;SDS011;49973;52.084;5.412;2024-01-11T04:29:35;11.40;;;5.80;;
61911;SDS011;49973;52.084;5.412;2024-01-11T04:32:03;7.50;;;3.37;;
61911;SDS011;49973;52.084;5.412;2024-01-11T04:34:32;8.80;;;4.77;;
61911;SDS011;49973;52.084;5.412;2024-01-11T04:37:01;8.07;;;4.80;;
61911;SDS011;49973;52.084;5.412;2024-01-11T04:39:30;5.83;;;3.50;;
61911;SDS011;49973;52.084;5.412;2024-01-11T04:42:01;6.70;;;3.97;;
61911;SDS011;49973;52.084;5.412;2024-01-11T04:44:30;8.47;;;4.47;;
61911;SDS011;49973;52.084;5.412;2024-01-11T04:46:58;5.80;;;4.80;;
61911;SDS011;49973;52.084;5.412;2024-01-11T04:49:27;6.47;;;5.40;;
61911;SDS011;49973;52.084;5.412;2024-01-11T04:51:56;8.13;;;3.73;;
61911;SDS011;49973;52.084;5.412;2024-01-11T04:54:24;5.43;;;3.00;;
61911;SDS011;49973;52.084;5.412;2024-01-11T04:56:53;7.77;;;5.00;;
61911;SDS011;49973;52.084;5.412;2024-01-11T04:59:23;12.53;;;5.40;;
61911;SDS011;49973;52.084;5.412;2024-01-11T05:01:52;8.37;;;4.60;;
61911;SDS011;49973;52.084;5.412;2024-01-11T05:04:21;13.00;;;4.30;;
61911;SDS011;49973;52.084;5.412;2024-01-11T05:06:50;7.90;;;4.70;;
61911;SDS011;49973;52.084;5.412;2024-01-11T05:09:19;8.77;;;4.00;;
61911;SDS011;49973;52.084;5.412;2024-01-11T05:11:48;6.73;;;4.13;;
61911;SDS011;49973;52.084;5.412;2024-01-11T05:14:16;7.60;;;5.33;;
61911;SDS011;49973;52.084;5.412;2024-01-11T05:16:47;7.47;;;5.03;;
61911;SDS011;49973;52.084;5.412;2024-01-11T05:19:15;7.83;;;4.37;;
61911;SDS011;49973;52.084;5.412;2024-01-11T05:21:44;6.23;;;4.17;;
61911;SDS011;49973;52.084;5.412;2024-01-11T05:24:13;5.13;;;3.57;;
61911;SDS011;49973;52.084;5.412;2024-01-11T05:26:41;8.17;;;3.17;;
61911;SDS011;49973;52.084;5.412;2024-01-11T05:29:10;13.77;;;5.97;;
61911;SDS011;49973;52.084;5.412;2024-01-11T05:31:39;6.90;;;4.03;;
61911;SDS011;49973;52.084;5.412;2024-01-11T05:34:09;7.80;;;4.07;;
61911;SDS011;49973;52.084;5.412;2024-01-11T05:36:40;7.83;;;4.23;;
61911;SDS011;49973;52.084;5.412;2024-01-11T05:39:08;7.13;;;4.23;;
61911;SDS011;49973;52.084;5.412;2024-01-11T05:41:37;4.40;;;4.00;;
61911;SDS011;49973;52.084;5.412;2024-01-11T05:44:05;4.77;;;3.23;;
61911;SDS011;49973;52.084;5.412;2024-01-11T05:46:34;4.93;;;2.93;;
61911;SDS011;49973;52.084;5.412;2024-01-11T05:49:03;5.13;;;3.10;;
61911;SDS011;49973;52.084;5.412;2024-01-11T05:51:33;5.40;;;3.70;;
61911;SDS011;49973;52.084;5.412;2024-01-11T05:54:01;7.87;;;5.27;;
61911;SDS011;49973;52.084;5.412;2024-01-11T05:56:31;9.67;;;4.57;;
61911;SDS011;49973;52.084;5.412;2024-01-11T05:58:59;11.97;;;6.30;;
61911;SDS011;49973;52.084;5.412;2024-01-11T06:01:28;6.37;;;3.97;;
61911;SDS011;49973;52.084;5.412;2024-01-11T06:03:56;6.33;;;3.30;;
61911;SDS011;49973;52.084;5.412;2024-01-11T06:06:25;7.97;;;4.77;;
61911;SDS011;49973;52.084;5.412;2024-01-11T06:08:55;7.73;;;5.03;;
61911;SDS011;49973;52.084;5.412;2024-01-11T06:11:24;8.27;;;4.70;;
61911;SDS011;49973;52.084;5.412;2024-01-11T06:13:52;8.40;;;4.30;;
61911;SDS011;49973;52.084;5.412;2024-01-11T06:16:21;8.60;;;4.87;;
61911;SDS011;49973;52.084;5.412;2024-01-11T06:18:50;7.60;;;4.57;;
61911;SDS011;49973;52.084;5.412;2024-01-11T06:21:19;9.63;;;5.10;;
61911;SDS011;49973;52.084;5.412;2024-01-11T06:23:47;7.57;;;3.77;;
61911;SDS011;49973;52.084;5.412;2024-01-11T06:26:18;10.23;;;5.33;;
61911;SDS011;49973;52.084;5.412;2024-01-11T06:28:47;7.67;;;4.90;;
61911;SDS011;49973;52.084;5.412;2024-01-11T06:31:15;12.40;;;4.47;;
61911;SDS011;49973;52.084;5.412;2024-01-11T06:33:45;7.13;;;4.43;;
61911;SDS011;49973;52.084;5.412;2024-01-11T06:36:17;9.70;;;5.30;;
61911;SDS011;49973;52.084;5.412;2024-01-11T06:38:46;8.03;;;4.90;;
61911;SDS011;49973;52.084;5.412;2024-01-11T06:41:14;10.17;;;5.20;;
61911;SDS011;49973;52.084;5.412;2024-01-11T06:43:44;7.60;;;4.00;;
61911;SDS011;49973;52.084;5.412;2024-01-11T06:46:13;9.57;;;4.20;;
61911;SDS011;49973;52.084;5.412;2024-01-11T06:48:48;8.40;;;4.67;;
61911;SDS011;49973;52.084;5.412;2024-01-11T06:51:20;8.20;;;4.97;;
61911;SDS011;49973;52.084;5.412;2024-01-11T06:53:49;8.17;;;5.17;;
61911;SDS011;49973;52.084;5.412;2024-01-11T06:56:18;9.83;;;4.83;;
61911;SDS011;49973;52.084;5.412;2024-01-11T06:58:49;5.63;;;2.93;;
61911;SDS011;49973;52.084;5.412;2024-01-11T07:01:18;10.37;;;4.17;;
61911;SDS011;49973;52.084;5.412;2024-01-11T07:03:47;8.00;;;4.17;;
61911;SDS011;49973;52.084;5.412;2024-01-11T07:06:16;8.77;;;5.70;;
61911;SDS011;49973;52.084;5.412;2024-01-11T07:08:45;9.27;;;5.10;;
61911;SDS011;49973;52.084;5.412;2024-01-11T07:11:14;6.70;;;4.80;;
61911;SDS011;49973;52.084;5.412;2024-01-11T07:13:42;8.77;;;4.17;;
61911;SDS011;49973;52.084;5.412;2024-01-11T07:16:12;5.13;;;3.50;;
61911;SDS011;49973;52.084;5.412;2024-01-11T07:18:42;8.77;;;5.33;;
61911;SDS011;49973;52.084;5.412;2024-01-11T07:21:11;6.23;;;4.67;;
61911;SDS011;49973;52.084;5.412;2024-01-11T07:23:40;10.27;;;5.30;;
61911;SDS011;49973;52.084;5.412;2024-01-11T07:26:08;13.57;;;5.03;;
61911;SDS011;49973;52.084;5.412;2024-01-11T07:28:37;7.10;;;4.13;;
61911;SDS011;49973;52.084;5.412;2024-01-11T07:31:06;6.73;;;4.43;;
61911;SDS011;49973;52.084;5.412;2024-01-11T07:33:36;7.47;;;4.23;;
61911;SDS011;49973;52.084;5.412;2024-01-11T07:36:05;6.50;;;4.57;;
61911;SDS011;49973;52.084;5.412;2024-01-11T07:38:34;4.43;;;3.83;;
61911;SDS011;49973;52.084;5.412;2024-01-11T07:41:03;10.03;;;4.90;;
61911;SDS011;49973;52.084;5.412;2024-01-11T07:43:31;9.53;;;5.13;;
61911;SDS011;49973;52.084;5.412;2024-01-11T07:46:19;4.60;;;4.07;;
61911;SDS011;49973;52.084;5.412;2024-01-11T07:49:03;6.43;;;4.67;;
61911;SDS011;49973;52.084;5.412;2024-01-11T07:51:32;9.50;;;4.33;;
61911;SDS011;49973;52.084;5.412;2024-01-11T07:54:02;8.47;;;5.27;;
61911;SDS011;49973;52.084;5.412;2024-01-11T07:56:32;4.33;;;3.50;;
61911;SDS011;49973;52.084;5.412;2024-01-11T07:59:02;7.60;;;5.37;;
61911;SDS011;49973;52.084;5.412;2024-01-11T08:01:31;6.30;;;4.07;;
61911;SDS011;49973;52.084;5.412;2024-01-11T08:04:04;5.87;;;5.10;;
61911;SDS011;49973;52.084;5.412;2024-01-11T08:06:32;7.90;;;5.27;;
61911;SDS011;49973;52.084;5.412;2024-01-11T08:09:01;11.70;;;4.93;;
61911;SDS011;49973;52.084;5.412;2024-01-11T08:11:32;11.83;;;6.87;;
61911;SDS011;49973;52.084;5.412;2024-01-11T08:14:04;9.87;;;5.07;;
61911;SDS011;49973;52.084;5.412;2024-01-11T08:16:33;6.00;;;3.87;;
61911;SDS011;49973;52.084;5.412;2024-01-11T08:19:03;5.80;;;3.37;;
61911;SDS011;49973;52.084;5.412;2024-01-11T08:21:32;9.77;;;4.73;;
61911;SDS011;49973;52.084;5.412;2024-01-11T08:24:01;7.27;;;5.10;;
61911;SDS011;49973;52.084;5.412;2024-01-11T08:26:30;7.60;;;5.83;;
61911;SDS011;49973;52.084;5.412;2024-01-11T08:28:59;9.53;;;6.07;;
61911;SDS011;49973;52.084;5.412;2024-01-11T08:31:29;7.87;;;5.20;;
61911;SDS011;49973;52.084;5.412;2024-01-11T08:33:58;7.60;;;4.20;;
61911;SDS011;49973;52.084;5.412;2024-01-11T08:36:31;10.43;;;4.57;;
61911;SDS011;49973;52.084;5.412;2024-01-11T08:39:01;11.23;;;5.27;;
61911;SDS011;49973;52.084;5.412;2024-01-11T08:41:32;8.00;;;3.80;;
61911;SDS011;49973;52.084;5.412;2024-01-11T08:44:01;10.17;;;4.90;;
61911;SDS011;49973;52.084;5.412;2024-01-11T08:46:32;8.50;;;5.10;;
61911;SDS011;49973;52.084;5.412;2024-01-11T08:49:01;8.03;;;5.37;;
61911;SDS011;49973;52.084;5.412;2024-01-11T08:51:32;9.00;;;4.97;;
61911;SDS011;49973;52.084;5.412;2024-01-11T08:54:01;8.73;;;4.93;;
61911;SDS011;49973;52.084;5.412;2024-01-11T08:56:31;6.83;;;4.67;;
61911;SDS011;49973;52.084;5.412;2024-01-11T08:59:00;12.93;;;5.40;;
61911;SDS011;49973;52.084;5.412;2024-01-11T09:01:28;7.70;;;4.83;;
61911;SDS011;49973;52.084;5.412;2024-01-11T09:03:58;9.83;;;4.97;;
61911;SDS011;49973;52.084;5.412;2024-01-11T09:06:27;11.60;;;6.20;;
61911;SDS011;49973;52.084;5.412;2024-01-11T09:08:57;12.33;;;5.63;;
61911;SDS011;49973;52.084;5.412;2024-01-11T09:11:26;6.97;;;4.27;;
61911;SDS011;49973;52.084;5.412;2024-01-11T09:13:54;10.77;;;6.07;;
61911;SDS011;49973;52.084;5.412;2024-01-11T09:16:24;8.77;;;4.93;;
61911;SDS011;49973;52.084;5.412;2024-01-11T09:18:52;6.90;;;4.37;;
61911;SDS011;49973;52.084;5.412;2024-01-11T09:21:21;13.37;;;6.33;;
61911;SDS011;49973;52.084;5.412;2024-01-11T09:23:50;9.83;;;5.30;;
61911;SDS011;49973;52.084;5.412;2024-01-11T09:26:20;6.00;;;4.20;;
61911;SDS011;49973;52.084;5.412;2024-01-11T09:28:49;10.23;;;5.63;;
61911;SDS011;49973;52.084;5.412;2024-01-11T09:31:18;7.63;;;3.73;;
61911;SDS011;49973;52.084;5.412;2024-01-11T09:33:46;10.20;;;6.63;;
61911;SDS011;49973;52.084;5.412;2024-01-11T09:36:16;3.73;;;2.77;;
61911;SDS011;49973;52.084;5.412;2024-01-11T09:38:45;12.93;;;4.73;;
61911;SDS011;49973;52.084;5.412;2024-01-11T09:41:15;4.33;;;2.93;;
61911;SDS011;49973;52.084;5.412;2024-01-11T09:43:45;5.53;;;3.67;;
61911;SDS011;49973;52.084;5.412;2024-01-11T09:46:18;7.87;;;3.63;;
61911;SDS011;49973;52.084;5.412;2024-01-11T09:48:47;8.17;;;5.47;;
61911;SDS011;49973;52.084;5.412;2024-01-11T09:51:18;3.70;;;2.57;;
61911;SDS011;49973;52.084;5.412;2024-01-11T09:53:47;3.40;;;2.20;;
61911;SDS011;49973;52.084;5.412;2024-01-11T09:56:19;2.50;;;2.30;;
61911;SDS011;49973;52.084;5.412;2024-01-11T09:58:50;3.07;;;1.70;;
61911;SDS011;49973;52.084;5.412;2024-01-11T10:01:19;6.20;;;2.67;;
61911;SDS011;49973;52.084;5.412;2024-01-11T10:03:48;3.77;;;2.60;;
61911;SDS011;49973;52.084;5.412;2024-01-11T10:06:17;3.77;;;2.40;;
61911;SDS011;49973;52.084;5.412;2024-01-11T10:08:47;4.97;;;3.13;;
61911;SDS011;49973;52.084;5.412;2024-01-11T10:11:16;6.63;;;2.53;;
61911;SDS011;49973;52.084;5.412;2024-01-11T10:13:44;4.27;;;2.23;;
61911;SDS011;49973;52.084;5.412;2024-01-11T10:16:15;3.93;;;1.83;;
61911;SDS011;49973;52.084;5.412;2024-01-11T10:18:44;3.00;;;2.10;;
61911;SDS011;49973;52.084;5.412;2024-01-11T10:21:13;3.73;;;3.10;;
61911;SDS011;49973;52.084;5.412;2024-01-11T10:23:41;3.70;;;2.37;;
61911;SDS011;49973;52.084;5.412;2024-01-11T10:26:10;2.53;;;2.33;;
61911;SDS011;49973;52.084;5.412;2024-01-11T10:28:39;4.17;;;2.17;;
61911;SDS011;49973;52.084;5.412;2024-01-11T10:31:10;2.40;;;2.20;;
61911;SDS011;49973;52.084;5.412;2024-01-11T10:33:40;3.10;;;1.73;;
61911;SDS011;49973;52.084;5.412;2024-01-11T10:36:10;7.17;;;3.33;;
61911;SDS011;49973;52.084;5.412;2024-01-11T10:38:39;4.23;;;2.87;;
61911;SDS011;49973;52.084;5.412;2024-01-11T10:41:09;4.90;;;2.67;;
61911;SDS011;49973;52.084;5.412;2024-01-11T10:43:40;2.27;;;1.63;;
61911;SDS011;49973;52.084;5.412;2024-01-11T10:46:09;2.97;;;2.27;;
61911;SDS011;49973;52.084;5.412;2024-01-11T10:48:42;2.93;;;2.40;;
61911;SDS011;49973;52.084;5.412;2024-01-11T10:51:16;3.73;;;2.27;;
61911;SDS011;49973;52.084;5.412;2024-01-11T10:53:48;3.87;;;2.50;;
61911;SDS011;49973;52.084;5.412;2024-01-11T10:56:20;2.33;;;2.13;;
61911;SDS011;49973;52.084;5.412;2024-01-11T10:58:49;4.03;;;2.80;;
61911;SDS011;49973;52.084;5.412;2024-01-11T11:01:19;2.67;;;2.20;;
61911;SDS011;49973;52.084;5.412;2024-01-11T11:03:52;2.60;;;1.67;;
61911;SDS011;49973;52.084;5.412;2024-01-11T11:06:22;1.33;;;0.73;;
61911;SDS011;49973;52.084;5.412;2024-01-11T11:08:54;3.40;;;2.10;;
61911;SDS011;49973;52.084;5.412;2024-01-11T11:11:25;4.43;;;2.97;;
61911;SDS011;49973;52.084;5.412;2024-01-11T11:13:56;5.37;;;2.03;;
61911;SDS011;49973;52.084;5.412;2024-01-11T11:16:26;3.37;;;2.73;;
61911;SDS011;49973;52.084;5.412;2024-01-11T11:18:56;7.73;;;2.10;;
61911;SDS011;49973;52.084;5.412;2024-01-11T11:21:25;3.07;;;2.07;;
61911;SDS011;49973;52.084;5.412;2024-01-11T11:23:55;3.53;;;2.67;;
61911;SDS011;49973;52.084;5.412;2024-01-11T11:26:25;4.93;;;2.87;;
61911;SDS011;49973;52.084;5.412;2024-01-11T11:28:55;3.43;;;1.87;;
61911;SDS011;49973;52.084;5.412;2024-01-11T11:31:36;3.00;;;2.20;;
61911;SDS011;49973;52.084;5.412;2024-01-11T11:34:06;3.37;;;2.67;;
61911;SDS011;49973;52.084;5.412;2024-01-11T11:36:35;5.70;;;2.67;;
61911;SDS011;49973;52.084;5.412;2024-01-11T11:39:04;2.97;;;1.63;;
61911;SDS011;49973;52.084;5.412;2024-01-11T11:41:33;9.87;;;2.53;;
61911;SDS011;49973;52.084;5.412;2024-01-11T11:44:05;3.13;;;2.17;;
61911;SDS011;49973;52.084;5.412;2024-01-11T11:46:34;5.27;;;2.60;;
61911;SDS011;49973;52.084;5.412;2024-01-11T11:49:04;3.17;;;2.33;;
61911;SDS011;49973;52.084;5.412;2024-01-11T11:51:34;5.57;;;2.80;;
61911;SDS011;49973;52.084;5.412;2024-01-11T11:54:03;2.17;;;1.83;;
61911;SDS011;49973;52.084;5.412;2024-01-11T11:56:32;5.00;;;2.90;;
61911;SDS011;49973;52.084;5.412;2024-01-11T11:59:02;3.67;;;2.53;;
61911;SDS011;49973;52.084;5.412;2024-01-11T12:01:31;8.93;;;3.97;;
61911;SDS011;49973;52.084;5.412;2024-01-11T12:04:01;3.53;;;2.90;;
61911;SDS011;49973;52.084;5.412;2024-01-11T12:06:29;3.90;;;2.93;;
61911;SDS011;49973;52.084;5.412;2024-01-11T12:09:00;2.70;;;2.13;;
61911;SDS011;49973;52.084;5.412;2024-01-11T12:11:29;4.63;;;1.83;;
61911;SDS011;49973;52.084;5.412;2024-01-11T12:14:00;6.03;;;2.63;;
61911;SDS011;49973;52.084;5.412;2024-01-11T12:16:29;5.00;;;2.73;;
61911;SDS011;49973;52.084;5.412;2024-01-11T12:18:57;6.53;;;2.10;;
61911;SDS011;49973;52.084;5.412;2024-01-11T12:21:26;4.30;;;2.20;;
61911;SDS011;49973;52.084;5.412;2024-01-11T12:23:56;4.23;;;2.80;;
61911;SDS011;49973;52.084;5.412;2024-01-11T12:26:26;4.40;;;2.60;;
61911;SDS011;49973;52.084;5.412;2024-01-11T12:28:54;6.57;;;3.93;;
61911;SDS011;49973;52.084;5.412;2024-01-11T12:31:23;8.33;;;3.80;;
61911;SDS011;49973;52.084;5.412;2024-01-11T12:33:52;5.57;;;3.07;;
61911;SDS011;49973;52.084;5.412;2024-01-11T12:36:22;4.13;;;2.30;;
61911;SDS011;49973;52.084;5.412;2024-01-11T12:38:51;7.13;;;3.30;;
61911;SDS011;49973;52.084;5.412;2024-01-11T12:41:21;5.63;;;2.90;;
61911;SDS011;49973;52.084;5.412;2024-01-11T12:43:52;5.97;;;3.23;;
61911;SDS011;49973;52.084;5.412;2024-01-11T12:46:21;5.60;;;3.00;;
61911;SDS011;49973;52.084;5.412;2024-01-11T12:48:50;2.77;;;2.07;;
61911;SDS011;49973;52.084;5.412;2024-01-11T12:51:19;5.13;;;3.17;;
61911;SDS011;49973;52.084;5.412;2024-01-11T12:53:51;5.30;;;2.83;;
61911;SDS011;49973;52.084;5.412;2024-01-11T12:56:21;4.50;;;3.00;;
61911;SDS011;49973;52.084;5.412;2024-01-11T12:58:50;7.27;;;4.27;;
61911;SDS011;49973;52.084;5.412;2024-01-11T13:01:32;6.60;;;4.23;;
61911;SDS011;49973;52.084;5.412;2024-01-11T13:04:01;6.93;;;4.07;;
61911;SDS011;49973;52.084;5.412;2024-01-11T13:06:30;6.13;;;3.47;;
61911;SDS011;49973;52.084;5.412;2024-01-11T13:09:01;5.67;;;2.90;;
61911;SDS011;49973;52.084;5.412;2024-01-11T13:11:30;5.77;;;3.10;;
61911;SDS011;49973;52.084;5.412;2024-01-11T13:14:01;4.60;;;2.50;;
61911;SDS011;49973;52.084;5.412;2024-01-11T13:16:33;2.70;;;1.70;;
61911;SDS011;49973;52.084;5.412;2024-01-11T13:19:02;3.87;;;2.57;;
61911;SDS011;49973;52.084;5.412;2024-01-11T13:21:50;2.03;;;1.53;;
61911;SDS011;49973;52.084;5.412;2024-01-11T13:24:19;3.43;;;2.30;;
61911;SDS011;49973;52.084;5.412;2024-01-11T13:26:47;6.97;;;3.67;;
61911;SDS011;49973;52.084;5.412;2024-01-11T13:29:18;3.00;;;1.93;;
61911;SDS011;49973;52.084;5.412;2024-01-11T13:31:46;5.60;;;2.93;;
61911;SDS011;49973;52.084;5.412;2024-01-11T13:34:15;3.63;;;2.63;;
61911;SDS011;49973;52.084;5.412;2024-01-11T13:36:44;5.67;;;3.73;;
61911;SDS011;49973;52.084;5.412;2024-01-11T13:39:12;5.63;;;3.00;;
61911;SDS011;49973;52.084;5.412;2024-01-11T13:41:41;2.83;;;2.07;;
61911;SDS011;49973;52.084;5.412;2024-01-11T13:44:11;2.10;;;1.90;;
61911;SDS011;49973;52.084;5.412;2024-01-11T13:46:41;4.30;;;3.07;;
61911;SDS011;49973;52.084;5.412;2024-01-11T13:49:10;3.33;;;2.13;;
61911;SDS011;49973;52.084;5.412;2024-01-11T13:51:39;5.00;;;2.37;;
61911;SDS011;49973;52.084;5.412;2024-01-11T13:54:22;3.50;;;2.13;;
61911;SDS011;49973;52.084;5.412;2024-01-11T13:56:51;4.70;;;3.07;;
61911;SDS011;49973;52.084;5.412;2024-01-11T13:59:20;9.63;;;3.70;;
61911;SDS011;49973;52.084;5.412;2024-01-11T14:01:50;8.33;;;3.60;;
61911;SDS011;49973;52.084;5.412;2024-01-11T14:04:18;2.57;;;2.10;;
61911;SDS011;49973;52.084;5.412;2024-01-11T14:06:50;2.33;;;2.13;;
61911;SDS011;49973;52.084;5.412;2024-01-11T14:09:20;8.10;;;2.73;;
61911;SDS011;49973;52.084;5.412;2024-01-11T14:11:49;4.63;;;2.73;;
61911;SDS011;49973;52.084;5.412;2024-01-11T14:14:18;4.33;;;2.50;;
61911;SDS011;49973;52.084;5.412;2024-01-11T14:16:47;3.80;;;2.17;;
61911;SDS011;49973;52.084;5.412;2024-01-11T14:19:18;3.40;;;2.50;;
61911;SDS011;49973;52.084;5.412;2024-01-11T14:21:47;4.33;;;2.17;;
61911;SDS011;49973;52.084;5.412;2024-01-11T14:24:17;11.23;;;3.20;;
61911;SDS011;49973;52.084;5.412;2024-01-11T14:26:55;4.53;;;2.83;;
61911;SDS011;49973;52.084;5.412;2024-01-11T14:29:24;3.63;;;2.50;;
61911;SDS011;49973;52.084;5.412;2024-01-11T14:31:54;3.20;;;2.70;;
61911;SDS011;49973;52.084;5.412;2024-01-11T14:34:23;2.67;;;2.03;;
61911;SDS011;49973;52.084;5.412;2024-01-11T14:36:57;6.37;;;3.37;;
61911;SDS011;49973;52.084;5.412;2024-01-11T14:39:26;4.73;;;2.97;;
61911;SDS011;49973;52.084;5.412;2024-01-11T14:41:55;3.93;;;2.50;;
61911;SDS011;49973;52.084;5.412;2024-01-11T14:44:24;4.03;;;3.23;;
61911;SDS011;49973;52.084;5.412;2024-01-11T14:46:54;5.80;;;2.17;;
61911;SDS011;49973;52.084;5.412;2024-01-11T14:49:24;3.20;;;2.43;;
61911;SDS011;49973;52.084;5.412;2024-01-11T14:51:53;4.57;;;2.87;;
61911;SDS011;49973;52.084;5.412;2024-01-11T14:54:22;3.10;;;1.93;;
61911;SDS011;49973;52.084;5.412;2024-01-11T14:56:50;4.10;;;1.53;;
61911;SDS011;49973;52.084;5.412;2024-01-11T14:59:20;2.47;;;1.57;;